Главная страница
METAR-TAF:

METAR-TAF

Аэропорты :

Кувейт, Кувейт

широта: 29-13N, долгота: 047-59E, высота над уровнем моря: 55 м

Текущие метеонаблюдения

Эта сводка был подготовлена 12 минут назад, в 17:00 UTC
Ветер 7 Узел от северно-северо-западный
Температура 17°C
Влажность 23%
Давление 1022 hPa
Видимость 10 км и более
Нет облачности ниже 1500 м, и нет кучево-дождевой облачности

METAR: OKBK 031700Z 33007KT CAVOK 17/M04 Q1022 NOSIG

Время: 20:12 (17:12 UTC)

Прогноз

Эта сводка был подготовлена 6 часа и 27 минут назад, в 10:45 UTC
Прогноз действительный с 03-го 12 UTC до 04-го 18 UTC
Ветер 15 Узел от северный с порывами до 25 Узел
Видимость: 7000 м

TAF: OKBK 031045Z 0312/0418 35015G25KT 7000 NSC

Метеонаблюдения и прогнозы для более 4000 аэропортов (сводки METAR и TAF).

Имеющиеся станции представлены на карте желтыми и красными точками.

Чтобы увидеть название станции, наведите на нее мышь.

Затем щелкните, чтобы увидеть метеонаблюдения и метеопрогнозы.

Управление картой: чтобы увеличить масштаб, щелкните зеленые кнопки с черным крестиком; чтобы уменьшить масштаб, щелкните зеленую кнопку с тире; для просмотра соседних карт щелкайте зеленые стрелки.


METAR-TAF: